sensor_id;sensor_type;location;lat;lon;timestamp;P1;durP1;ratioP1;P2;durP2;ratioP2
73776;SDS011;62088;50.240;2.696;2023-02-10T00:03:49;64.90;;;36.03;;
73776;SDS011;62088;50.240;2.696;2023-02-10T00:06:17;64.45;;;34.00;;
73776;SDS011;62088;50.240;2.696;2023-02-10T00:08:46;55.70;;;33.30;;
73776;SDS011;62088;50.240;2.696;2023-02-10T00:11:14;60.70;;;35.55;;
73776;SDS011;62088;50.240;2.696;2023-02-10T00:13:44;63.15;;;35.00;;
73776;SDS011;62088;50.240;2.696;2023-02-10T00:16:13;54.92;;;32.85;;
73776;SDS011;62088;50.240;2.696;2023-02-10T00:18:41;60.67;;;35.95;;
73776;SDS011;62088;50.240;2.696;2023-02-10T00:21:09;54.47;;;31.80;;
73776;SDS011;62088;50.240;2.696;2023-02-10T00:23:39;63.00;;;32.88;;
73776;SDS011;62088;50.240;2.696;2023-02-10T00:26:07;70.35;;;37.25;;
73776;SDS011;62088;50.240;2.696;2023-02-10T00:28:36;74.78;;;38.47;;
73776;SDS011;62088;50.240;2.696;2023-02-10T00:31:06;67.07;;;35.85;;
73776;SDS011;62088;50.240;2.696;2023-02-10T00:33:40;57.92;;;33.38;;
73776;SDS011;62088;50.240;2.696;2023-02-10T00:36:09;59.88;;;38.13;;
73776;SDS011;62088;50.240;2.696;2023-02-10T00:38:38;62.95;;;35.00;;
73776;SDS011;62088;50.240;2.696;2023-02-10T00:41:07;64.15;;;36.08;;
73776;SDS011;62088;50.240;2.696;2023-02-10T00:43:36;55.55;;;33.80;;
73776;SDS011;62088;50.240;2.696;2023-02-10T00:46:05;63.25;;;35.60;;
73776;SDS011;62088;50.240;2.696;2023-02-10T00:48:33;50.40;;;30.38;;
73776;SDS011;62088;50.240;2.696;2023-02-10T00:51:00;62.17;;;30.92;;
73776;SDS011;62088;50.240;2.696;2023-02-10T00:53:28;64.55;;;33.33;;
73776;SDS011;62088;50.240;2.696;2023-02-10T00:55:56;77.20;;;35.35;;
73776;SDS011;62088;50.240;2.696;2023-02-10T00:58:23;70.50;;;34.83;;
73776;SDS011;62088;50.240;2.696;2023-02-10T01:00:51;61.63;;;29.63;;
73776;SDS011;62088;50.240;2.696;2023-02-10T01:03:20;85.68;;;33.85;;
73776;SDS011;62088;50.240;2.696;2023-02-10T01:05:47;88.15;;;37.03;;
73776;SDS011;62088;50.240;2.696;2023-02-10T01:08:15;105.93;;;33.05;;
73776;SDS011;62088;50.240;2.696;2023-02-10T01:10:42;84.13;;;36.28;;
73776;SDS011;62088;50.240;2.696;2023-02-10T01:13:11;81.15;;;35.80;;
73776;SDS011;62088;50.240;2.696;2023-02-10T01:15:45;93.00;;;39.42;;
73776;SDS011;62088;50.240;2.696;2023-02-10T01:18:13;74.15;;;37.88;;
73776;SDS011;62088;50.240;2.696;2023-02-10T01:20:41;87.95;;;40.50;;
73776;SDS011;62088;50.240;2.696;2023-02-10T01:23:09;77.60;;;38.67;;
73776;SDS011;62088;50.240;2.696;2023-02-10T01:25:36;72.30;;;34.47;;
73776;SDS011;62088;50.240;2.696;2023-02-10T01:28:04;64.43;;;32.70;;
73776;SDS011;62088;50.240;2.696;2023-02-10T01:30:32;62.75;;;32.65;;
73776;SDS011;62088;50.240;2.696;2023-02-10T01:33:00;68.82;;;32.65;;
73776;SDS011;62088;50.240;2.696;2023-02-10T01:35:28;57.15;;;30.42;;
73776;SDS011;62088;50.240;2.696;2023-02-10T01:37:56;43.60;;;26.83;;
73776;SDS011;62088;50.240;2.696;2023-02-10T01:40:24;39.53;;;25.13;;
73776;SDS011;62088;50.240;2.696;2023-02-10T01:42:52;46.55;;;27.75;;
73776;SDS011;62088;50.240;2.696;2023-02-10T01:47:55;38.95;;;25.00;;
73776;SDS011;62088;50.240;2.696;2023-02-10T01:50:25;58.75;;;27.67;;
73776;SDS011;62088;50.240;2.696;2023-02-10T01:52:55;67.88;;;33.70;;
73776;SDS011;62088;50.240;2.696;2023-02-10T01:55:25;62.08;;;32.33;;
73776;SDS011;62088;50.240;2.696;2023-02-10T01:58:04;49.13;;;28.35;;
73776;SDS011;62088;50.240;2.696;2023-02-10T02:00:35;58.97;;;30.75;;
73776;SDS011;62088;50.240;2.696;2023-02-10T02:03:02;79.97;;;32.05;;
73776;SDS011;62088;50.240;2.696;2023-02-10T02:08:36;64.90;;;32.33;;
73776;SDS011;62088;50.240;2.696;2023-02-10T02:16:12;87.93;;;32.97;;
73776;SDS011;62088;50.240;2.696;2023-02-10T02:27:55;92.88;;;36.22;;
73776;SDS011;62088;50.240;2.696;2023-02-10T02:36:29;72.22;;;34.70;;
73776;SDS011;62088;50.240;2.696;2023-02-10T02:39:04;67.50;;;32.97;;
73776;SDS011;62088;50.240;2.696;2023-02-10T02:41:34;79.00;;;34.60;;
73776;SDS011;62088;50.240;2.696;2023-02-10T02:44:03;77.70;;;34.88;;
73776;SDS011;62088;50.240;2.696;2023-02-10T02:49:22;67.65;;;33.10;;
73776;SDS011;62088;50.240;2.696;2023-02-10T02:52:10;80.63;;;34.65;;
73776;SDS011;62088;50.240;2.696;2023-02-10T02:57:21;53.35;;;28.15;;
73776;SDS011;62088;50.240;2.696;2023-02-10T03:00:03;56.03;;;29.67;;
73776;SDS011;62088;50.240;2.696;2023-02-10T03:02:34;57.85;;;31.00;;
73776;SDS011;62088;50.240;2.696;2023-02-10T03:05:03;63.83;;;34.45;;
73776;SDS011;62088;50.240;2.696;2023-02-10T03:07:30;73.68;;;36.45;;
73776;SDS011;62088;50.240;2.696;2023-02-10T03:09:57;63.40;;;32.75;;
73776;SDS011;62088;50.240;2.696;2023-02-10T03:12:24;85.88;;;38.08;;
73776;SDS011;62088;50.240;2.696;2023-02-10T03:14:51;92.90;;;38.30;;
73776;SDS011;62088;50.240;2.696;2023-02-10T03:17:18;68.88;;;35.33;;
73776;SDS011;62088;50.240;2.696;2023-02-10T03:19:45;78.13;;;35.38;;
73776;SDS011;62088;50.240;2.696;2023-02-10T03:22:12;59.63;;;32.17;;
73776;SDS011;62088;50.240;2.696;2023-02-10T03:24:39;75.80;;;35.72;;
73776;SDS011;62088;50.240;2.696;2023-02-10T03:27:07;73.38;;;31.63;;
73776;SDS011;62088;50.240;2.696;2023-02-10T03:29:34;63.03;;;32.72;;
73776;SDS011;62088;50.240;2.696;2023-02-10T03:32:01;59.80;;;32.40;;
73776;SDS011;62088;50.240;2.696;2023-02-10T03:34:29;72.63;;;34.28;;
73776;SDS011;62088;50.240;2.696;2023-02-10T03:36:57;72.00;;;33.97;;
73776;SDS011;62088;50.240;2.696;2023-02-10T03:39:24;62.53;;;31.70;;
73776;SDS011;62088;50.240;2.696;2023-02-10T03:41:51;66.45;;;33.55;;
73776;SDS011;62088;50.240;2.696;2023-02-10T03:44:19;56.92;;;31.65;;
73776;SDS011;62088;50.240;2.696;2023-02-10T03:46:46;54.35;;;28.52;;
73776;SDS011;62088;50.240;2.696;2023-02-10T03:49:13;55.83;;;32.25;;
73776;SDS011;62088;50.240;2.696;2023-02-10T03:51:40;66.90;;;33.63;;
73776;SDS011;62088;50.240;2.696;2023-02-10T03:54:07;49.25;;;29.27;;
73776;SDS011;62088;50.240;2.696;2023-02-10T03:56:34;51.50;;;29.52;;
73776;SDS011;62088;50.240;2.696;2023-02-10T03:59:02;56.35;;;30.73;;
73776;SDS011;62088;50.240;2.696;2023-02-10T04:01:29;55.35;;;29.67;;
73776;SDS011;62088;50.240;2.696;2023-02-10T04:03:57;65.47;;;32.75;;
73776;SDS011;62088;50.240;2.696;2023-02-10T04:06:24;55.70;;;30.33;;
73776;SDS011;62088;50.240;2.696;2023-02-10T04:08:51;56.88;;;32.33;;
73776;SDS011;62088;50.240;2.696;2023-02-10T04:11:18;66.28;;;33.17;;
73776;SDS011;62088;50.240;2.696;2023-02-10T04:13:45;55.00;;;28.67;;
73776;SDS011;62088;50.240;2.696;2023-02-10T04:16:13;67.05;;;33.97;;
73776;SDS011;62088;50.240;2.696;2023-02-10T04:18:42;55.50;;;28.70;;
73776;SDS011;62088;50.240;2.696;2023-02-10T04:21:10;82.75;;;35.00;;
73776;SDS011;62088;50.240;2.696;2023-02-10T04:23:38;82.45;;;36.20;;
73776;SDS011;62088;50.240;2.696;2023-02-10T04:26:05;76.45;;;36.17;;
73776;SDS011;62088;50.240;2.696;2023-02-10T04:28:33;83.63;;;36.30;;
73776;SDS011;62088;50.240;2.696;2023-02-10T04:31:00;94.85;;;38.53;;
73776;SDS011;62088;50.240;2.696;2023-02-10T04:33:28;89.85;;;39.55;;
73776;SDS011;62088;50.240;2.696;2023-02-10T04:35:55;79.30;;;37.30;;
73776;SDS011;62088;50.240;2.696;2023-02-10T04:38:23;107.38;;;43.50;;
73776;SDS011;62088;50.240;2.696;2023-02-10T04:40:50;94.28;;;41.13;;
73776;SDS011;62088;50.240;2.696;2023-02-10T04:43:17;101.93;;;39.22;;
73776;SDS011;62088;50.240;2.696;2023-02-10T04:45:44;101.80;;;40.45;;
73776;SDS011;62088;50.240;2.696;2023-02-10T04:48:12;105.15;;;40.30;;
73776;SDS011;62088;50.240;2.696;2023-02-10T04:50:42;129.48;;;45.78;;
73776;SDS011;62088;50.240;2.696;2023-02-10T04:53:09;130.35;;;46.50;;
73776;SDS011;62088;50.240;2.696;2023-02-10T04:55:37;114.68;;;41.92;;
73776;SDS011;62088;50.240;2.696;2023-02-10T04:58:04;107.00;;;41.33;;
73776;SDS011;62088;50.240;2.696;2023-02-10T05:00:31;95.18;;;38.38;;
73776;SDS011;62088;50.240;2.696;2023-02-10T05:02:58;139.32;;;46.45;;
73776;SDS011;62088;50.240;2.696;2023-02-10T05:05:25;125.38;;;45.38;;
73776;SDS011;62088;50.240;2.696;2023-02-10T05:07:53;125.90;;;45.35;;
73776;SDS011;62088;50.240;2.696;2023-02-10T05:10:21;117.72;;;42.67;;
73776;SDS011;62088;50.240;2.696;2023-02-10T05:12:48;142.98;;;49.80;;
73776;SDS011;62088;50.240;2.696;2023-02-10T05:15:15;118.40;;;44.75;;
73776;SDS011;62088;50.240;2.696;2023-02-10T05:17:42;105.90;;;47.17;;
73776;SDS011;62088;50.240;2.696;2023-02-10T05:20:10;112.50;;;44.42;;
73776;SDS011;62088;50.240;2.696;2023-02-10T05:22:37;128.70;;;49.78;;
73776;SDS011;62088;50.240;2.696;2023-02-10T05:25:06;122.72;;;51.17;;
73776;SDS011;62088;50.240;2.696;2023-02-10T05:27:34;131.27;;;50.78;;
73776;SDS011;62088;50.240;2.696;2023-02-10T05:30:02;106.65;;;45.75;;
73776;SDS011;62088;50.240;2.696;2023-02-10T05:32:32;119.65;;;50.53;;
73776;SDS011;62088;50.240;2.696;2023-02-10T05:34:59;110.75;;;49.72;;
73776;SDS011;62088;50.240;2.696;2023-02-10T05:37:27;125.22;;;51.10;;
73776;SDS011;62088;50.240;2.696;2023-02-10T05:39:54;121.93;;;52.25;;
73776;SDS011;62088;50.240;2.696;2023-02-10T05:42:21;136.27;;;52.47;;
73776;SDS011;62088;50.240;2.696;2023-02-10T05:44:48;137.07;;;56.75;;
73776;SDS011;62088;50.240;2.696;2023-02-10T05:47:15;137.02;;;56.80;;
73776;SDS011;62088;50.240;2.696;2023-02-10T05:49:42;156.18;;;60.72;;
73776;SDS011;62088;50.240;2.696;2023-02-10T05:52:09;143.68;;;58.88;;
73776;SDS011;62088;50.240;2.696;2023-02-10T05:54:36;145.63;;;60.40;;
73776;SDS011;62088;50.240;2.696;2023-02-10T05:57:03;159.50;;;62.65;;
73776;SDS011;62088;50.240;2.696;2023-02-10T05:59:30;154.45;;;63.53;;
73776;SDS011;62088;50.240;2.696;2023-02-10T06:01:57;175.48;;;64.82;;
73776;SDS011;62088;50.240;2.696;2023-02-10T06:04:24;160.55;;;63.17;;
73776;SDS011;62088;50.240;2.696;2023-02-10T06:06:51;176.25;;;69.78;;
73776;SDS011;62088;50.240;2.696;2023-02-10T06:09:18;182.30;;;66.22;;
73776;SDS011;62088;50.240;2.696;2023-02-10T06:11:50;188.15;;;65.82;;
73776;SDS011;62088;50.240;2.696;2023-02-10T06:14:18;162.40;;;61.63;;
73776;SDS011;62088;50.240;2.696;2023-02-10T06:16:46;181.57;;;67.82;;
73776;SDS011;62088;50.240;2.696;2023-02-10T06:19:13;170.23;;;66.18;;
73776;SDS011;62088;50.240;2.696;2023-02-10T06:21:41;163.57;;;63.78;;
73776;SDS011;62088;50.240;2.696;2023-02-10T06:24:08;166.95;;;65.07;;
73776;SDS011;62088;50.240;2.696;2023-02-10T06:26:36;188.27;;;68.80;;
73776;SDS011;62088;50.240;2.696;2023-02-10T06:29:03;177.48;;;65.57;;
73776;SDS011;62088;50.240;2.696;2023-02-10T06:31:30;171.27;;;62.45;;
73776;SDS011;62088;50.240;2.696;2023-02-10T06:33:57;175.15;;;67.97;;
73776;SDS011;62088;50.240;2.696;2023-02-10T06:36:24;199.38;;;69.07;;
73776;SDS011;62088;50.240;2.696;2023-02-10T06:38:51;176.98;;;64.90;;
73776;SDS011;62088;50.240;2.696;2023-02-10T06:41:18;178.27;;;65.43;;
73776;SDS011;62088;50.240;2.696;2023-02-10T06:43:45;208.80;;;68.15;;
73776;SDS011;62088;50.240;2.696;2023-02-10T06:46:13;196.95;;;69.50;;
73776;SDS011;62088;50.240;2.696;2023-02-10T06:48:42;188.95;;;67.53;;
73776;SDS011;62088;50.240;2.696;2023-02-10T06:51:09;178.57;;;64.57;;
73776;SDS011;62088;50.240;2.696;2023-02-10T06:53:36;191.52;;;67.60;;
73776;SDS011;62088;50.240;2.696;2023-02-10T06:56:05;210.23;;;67.05;;
73776;SDS011;62088;50.240;2.696;2023-02-10T06:58:32;182.60;;;65.57;;
73776;SDS011;62088;50.240;2.696;2023-02-10T07:00:59;164.95;;;64.53;;
73776;SDS011;62088;50.240;2.696;2023-02-10T07:03:28;162.57;;;62.50;;
73776;SDS011;62088;50.240;2.696;2023-02-10T07:05:55;167.35;;;62.33;;
73776;SDS011;62088;50.240;2.696;2023-02-10T07:08:22;184.55;;;65.25;;
73776;SDS011;62088;50.240;2.696;2023-02-10T07:10:49;160.57;;;63.10;;
73776;SDS011;62088;50.240;2.696;2023-02-10T07:13:16;173.60;;;65.47;;
73776;SDS011;62088;50.240;2.696;2023-02-10T07:15:43;148.80;;;62.05;;
73776;SDS011;62088;50.240;2.696;2023-02-10T07:18:10;180.65;;;67.03;;
73776;SDS011;62088;50.240;2.696;2023-02-10T07:20:37;178.88;;;66.05;;
73776;SDS011;62088;50.240;2.696;2023-02-10T07:23:04;166.57;;;63.58;;
73776;SDS011;62088;50.240;2.696;2023-02-10T07:25:31;163.45;;;62.92;;
73776;SDS011;62088;50.240;2.696;2023-02-10T07:27:59;173.50;;;63.53;;
73776;SDS011;62088;50.240;2.696;2023-02-10T07:30:26;190.45;;;66.70;;
73776;SDS011;62088;50.240;2.696;2023-02-10T07:32:53;180.23;;;67.25;;
73776;SDS011;62088;50.240;2.696;2023-02-10T07:35:20;184.05;;;64.50;;
73776;SDS011;62088;50.240;2.696;2023-02-10T07:37:48;189.18;;;63.83;;
73776;SDS011;62088;50.240;2.696;2023-02-10T07:40:15;196.63;;;66.60;;
73776;SDS011;62088;50.240;2.696;2023-02-10T07:42:42;181.75;;;63.90;;
73776;SDS011;62088;50.240;2.696;2023-02-10T07:45:36;190.48;;;61.42;;
73776;SDS011;62088;50.240;2.696;2023-02-10T07:48:03;181.55;;;59.67;;
73776;SDS011;62088;50.240;2.696;2023-02-10T07:50:30;195.80;;;63.42;;
73776;SDS011;62088;50.240;2.696;2023-02-10T07:53:00;201.75;;;63.13;;
73776;SDS011;62088;50.240;2.696;2023-02-10T07:55:27;207.80;;;60.55;;
73776;SDS011;62088;50.240;2.696;2023-02-10T07:57:54;191.27;;;60.53;;
73776;SDS011;62088;50.240;2.696;2023-02-10T08:00:21;195.32;;;59.45;;
73776;SDS011;62088;50.240;2.696;2023-02-10T08:02:48;200.85;;;62.28;;
73776;SDS011;62088;50.240;2.696;2023-02-10T08:05:15;214.63;;;60.13;;
73776;SDS011;62088;50.240;2.696;2023-02-10T08:07:49;201.65;;;59.90;;
73776;SDS011;62088;50.240;2.696;2023-02-10T08:10:25;175.55;;;54.28;;
73776;SDS011;62088;50.240;2.696;2023-02-10T08:12:52;181.45;;;55.75;;
73776;SDS011;62088;50.240;2.696;2023-02-10T08:15:20;183.30;;;56.60;;
73776;SDS011;62088;50.240;2.696;2023-02-10T08:17:51;175.90;;;55.33;;
73776;SDS011;62088;50.240;2.696;2023-02-10T08:20:18;194.93;;;57.63;;
73776;SDS011;62088;50.240;2.696;2023-02-10T08:22:45;170.25;;;52.97;;
73776;SDS011;62088;50.240;2.696;2023-02-10T08:25:12;178.80;;;53.72;;
73776;SDS011;62088;50.240;2.696;2023-02-10T08:27:40;182.15;;;57.65;;
73776;SDS011;62088;50.240;2.696;2023-02-10T08:30:07;193.10;;;57.30;;
73776;SDS011;62088;50.240;2.696;2023-02-10T08:32:34;218.57;;;61.03;;
73776;SDS011;62088;50.240;2.696;2023-02-10T08:35:01;206.00;;;61.22;;
73776;SDS011;62088;50.240;2.696;2023-02-10T08:37:29;211.43;;;60.85;;
73776;SDS011;62088;50.240;2.696;2023-02-10T08:39:56;209.93;;;58.40;;
73776;SDS011;62088;50.240;2.696;2023-02-10T08:42:25;212.65;;;59.05;;
73776;SDS011;62088;50.240;2.696;2023-02-10T08:44:52;194.63;;;57.00;;
73776;SDS011;62088;50.240;2.696;2023-02-10T08:47:19;208.30;;;57.30;;
73776;SDS011;62088;50.240;2.696;2023-02-10T08:49:46;202.63;;;56.67;;
73776;SDS011;62088;50.240;2.696;2023-02-10T08:52:13;199.73;;;55.05;;
73776;SDS011;62088;50.240;2.696;2023-02-10T08:54:40;225.82;;;57.75;;
73776;SDS011;62088;50.240;2.696;2023-02-10T08:57:07;206.23;;;54.88;;
73776;SDS011;62088;50.240;2.696;2023-02-10T08:59:36;222.52;;;59.35;;
73776;SDS011;62088;50.240;2.696;2023-02-10T09:02:03;213.25;;;56.33;;
73776;SDS011;62088;50.240;2.696;2023-02-10T09:04:30;212.45;;;55.40;;
73776;SDS011;62088;50.240;2.696;2023-02-10T09:06:57;226.07;;;54.60;;
73776;SDS011;62088;50.240;2.696;2023-02-10T09:09:26;205.90;;;55.75;;
73776;SDS011;62088;50.240;2.696;2023-02-10T09:12:03;182.27;;;49.92;;
73776;SDS011;62088;50.240;2.696;2023-02-10T09:14:41;183.90;;;47.97;;
73776;SDS011;62088;50.240;2.696;2023-02-10T09:17:18;191.93;;;49.58;;
73776;SDS011;62088;50.240;2.696;2023-02-10T09:19:55;184.98;;;47.35;;
73776;SDS011;62088;50.240;2.696;2023-02-10T09:22:34;190.98;;;53.35;;
73776;SDS011;62088;50.240;2.696;2023-02-10T09:25:14;207.60;;;54.70;;
73776;SDS011;62088;50.240;2.696;2023-02-10T09:27:48;205.93;;;57.58;;
73776;SDS011;62088;50.240;2.696;2023-02-10T09:30:37;208.77;;;56.92;;
73776;SDS011;62088;50.240;2.696;2023-02-10T09:33:13;222.02;;;60.17;;
73776;SDS011;62088;50.240;2.696;2023-02-10T09:35:41;218.55;;;57.22;;
73776;SDS011;62088;50.240;2.696;2023-02-10T09:38:08;199.02;;;56.75;;
73776;SDS011;62088;50.240;2.696;2023-02-10T09:40:58;222.82;;;59.88;;
73776;SDS011;62088;50.240;2.696;2023-02-10T09:54:44;216.80;;;62.50;;
73776;SDS011;62088;50.240;2.696;2023-02-10T09:57:17;237.40;;;66.18;;
73776;SDS011;62088;50.240;2.696;2023-02-10T09:59:47;230.73;;;63.85;;
73776;SDS011;62088;50.240;2.696;2023-02-10T10:02:19;221.80;;;65.28;;
73776;SDS011;62088;50.240;2.696;2023-02-10T10:04:53;223.98;;;64.97;;
73776;SDS011;62088;50.240;2.696;2023-02-10T10:07:26;204.10;;;63.42;;
73776;SDS011;62088;50.240;2.696;2023-02-10T10:12:50;216.15;;;64.13;;
73776;SDS011;62088;50.240;2.696;2023-02-10T10:15:18;208.38;;;65.15;;
73776;SDS011;62088;50.240;2.696;2023-02-10T10:17:52;187.73;;;60.15;;
73776;SDS011;62088;50.240;2.696;2023-02-10T10:31:14;143.18;;;51.30;;
73776;SDS011;62088;50.240;2.696;2023-02-10T10:36:20;124.57;;;48.33;;
73776;SDS011;62088;50.240;2.696;2023-02-10T10:38:50;137.40;;;48.20;;
73776;SDS011;62088;50.240;2.696;2023-02-10T10:41:20;148.65;;;49.28;;
73776;SDS011;62088;50.240;2.696;2023-02-10T10:43:53;138.00;;;58.42;;
73776;SDS011;62088;50.240;2.696;2023-02-10T10:48:57;113.97;;;46.65;;
73776;SDS011;62088;50.240;2.696;2023-02-10T10:51:24;107.50;;;44.22;;
73776;SDS011;62088;50.240;2.696;2023-02-10T10:53:54;116.35;;;43.80;;
73776;SDS011;62088;50.240;2.696;2023-02-10T10:59:15;102.80;;;40.72;;
73776;SDS011;62088;50.240;2.696;2023-02-10T11:01:47;95.78;;;41.00;;
73776;SDS011;62088;50.240;2.696;2023-02-10T11:04:17;95.30;;;41.42;;
73776;SDS011;62088;50.240;2.696;2023-02-10T11:06:47;94.63;;;40.65;;
73776;SDS011;62088;50.240;2.696;2023-02-10T11:11:54;101.15;;;42.63;;
73776;SDS011;62088;50.240;2.696;2023-02-10T11:14:36;105.70;;;43.58;;
73776;SDS011;62088;50.240;2.696;2023-02-10T11:17:17;102.10;;;42.55;;
73776;SDS011;62088;50.240;2.696;2023-02-10T11:20:04;98.45;;;44.45;;
73776;SDS011;62088;50.240;2.696;2023-02-10T11:22:31;101.15;;;46.50;;
73776;SDS011;62088;50.240;2.696;2023-02-10T11:24:59;107.63;;;47.40;;
73776;SDS011;62088;50.240;2.696;2023-02-10T11:27:28;105.57;;;47.33;;
73776;SDS011;62088;50.240;2.696;2023-02-10T11:29:56;105.57;;;45.72;;
73776;SDS011;62088;50.240;2.696;2023-02-10T11:32:25;116.78;;;48.72;;
73776;SDS011;62088;50.240;2.696;2023-02-10T11:34:58;122.30;;;54.15;;
73776;SDS011;62088;50.240;2.696;2023-02-10T11:37:30;103.07;;;47.70;;
73776;SDS011;62088;50.240;2.696;2023-02-10T11:39:59;122.35;;;51.10;;
73776;SDS011;62088;50.240;2.696;2023-02-10T11:42:30;122.85;;;48.78;;
73776;SDS011;62088;50.240;2.696;2023-02-10T11:47:31;86.50;;;42.47;;
73776;SDS011;62088;50.240;2.696;2023-02-10T11:49:59;95.90;;;42.75;;
73776;SDS011;62088;50.240;2.696;2023-02-10T11:52:27;100.38;;;53.63;;
73776;SDS011;62088;50.240;2.696;2023-02-10T11:55:00;81.78;;;46.03;;
73776;SDS011;62088;50.240;2.696;2023-02-10T12:11:37;65.82;;;33.55;;
73776;SDS011;62088;50.240;2.696;2023-02-10T12:17:28;55.35;;;31.27;;
73776;SDS011;62088;50.240;2.696;2023-02-10T12:20:02;51.70;;;30.42;;
73776;SDS011;62088;50.240;2.696;2023-02-10T12:28:07;44.35;;;28.65;;
73776;SDS011;62088;50.240;2.696;2023-02-10T12:34:43;52.00;;;31.95;;
73776;SDS011;62088;50.240;2.696;2023-02-10T12:37:09;45.65;;;29.60;;
73776;SDS011;62088;50.240;2.696;2023-02-10T12:40:16;45.20;;;28.92;;
73776;SDS011;62088;50.240;2.696;2023-02-10T12:51:28;32.80;;;21.05;;
73776;SDS011;62088;50.240;2.696;2023-02-10T12:54:14;37.27;;;21.93;;
73776;SDS011;62088;50.240;2.696;2023-02-10T12:57:11;31.75;;;21.13;;
73776;SDS011;62088;50.240;2.696;2023-02-10T13:02:40;37.83;;;23.98;;
73776;SDS011;62088;50.240;2.696;2023-02-10T13:05:14;35.22;;;23.55;;
73776;SDS011;62088;50.240;2.696;2023-02-10T13:07:49;34.20;;;25.75;;
73776;SDS011;62088;50.240;2.696;2023-02-10T13:10:29;38.35;;;25.50;;
73776;SDS011;62088;50.240;2.696;2023-02-10T13:13:30;37.15;;;24.33;;
73776;SDS011;62088;50.240;2.696;2023-02-10T13:15:59;35.40;;;24.58;;
73776;SDS011;62088;50.240;2.696;2023-02-10T13:18:40;32.25;;;22.88;;
73776;SDS011;62088;50.240;2.696;2023-02-10T13:35:05;23.45;;;16.02;;
73776;SDS011;62088;50.240;2.696;2023-02-10T13:37:43;22.80;;;16.08;;
73776;SDS011;62088;50.240;2.696;2023-02-10T13:40:20;21.42;;;15.18;;
73776;SDS011;62088;50.240;2.696;2023-02-10T13:42:56;19.63;;;13.00;;
73776;SDS011;62088;50.240;2.696;2023-02-10T13:45:28;19.55;;;12.48;;
73776;SDS011;62088;50.240;2.696;2023-02-10T13:53:02;15.52;;;9.50;;
73776;SDS011;62088;50.240;2.696;2023-02-10T14:00:45;11.13;;;7.45;;
73776;SDS011;62088;50.240;2.696;2023-02-10T14:05:59;11.65;;;7.65;;
73776;SDS011;62088;50.240;2.696;2023-02-10T14:16:36;12.57;;;7.85;;
73776;SDS011;62088;50.240;2.696;2023-02-10T14:19:20;12.43;;;7.63;;
73776;SDS011;62088;50.240;2.696;2023-02-10T14:21:51;10.98;;;7.57;;
73776;SDS011;62088;50.240;2.696;2023-02-10T14:24:22;12.13;;;8.00;;
73776;SDS011;62088;50.240;2.696;2023-02-10T14:27:02;11.30;;;8.07;;
73776;SDS011;62088;50.240;2.696;2023-02-10T14:29:33;10.90;;;7.85;;
73776;SDS011;62088;50.240;2.696;2023-02-10T14:32:01;13.43;;;8.65;;
73776;SDS011;62088;50.240;2.696;2023-02-10T14:34:31;13.00;;;8.90;;
73776;SDS011;62088;50.240;2.696;2023-02-10T14:37:01;13.63;;;10.75;;
73776;SDS011;62088;50.240;2.696;2023-02-10T14:39:37;14.23;;;10.38;;
73776;SDS011;62088;50.240;2.696;2023-02-10T14:42:05;15.35;;;10.32;;
73776;SDS011;62088;50.240;2.696;2023-02-10T14:44:34;13.60;;;9.93;;
73776;SDS011;62088;50.240;2.696;2023-02-10T14:47:17;14.40;;;9.82;;
73776;SDS011;62088;50.240;2.696;2023-02-10T14:49:53;11.25;;;8.10;;
73776;SDS011;62088;50.240;2.696;2023-02-10T14:55:26;13.63;;;8.77;;
73776;SDS011;62088;50.240;2.696;2023-02-10T14:58:02;14.85;;;8.57;;
73776;SDS011;62088;50.240;2.696;2023-02-10T15:00:30;11.82;;;8.68;;
73776;SDS011;62088;50.240;2.696;2023-02-10T15:02:58;13.82;;;7.28;;
73776;SDS011;62088;50.240;2.696;2023-02-10T15:11:14;12.80;;;6.30;;
73776;SDS011;62088;50.240;2.696;2023-02-10T15:14:05;11.18;;;6.50;;
73776;SDS011;62088;50.240;2.696;2023-02-10T15:16:37;12.70;;;6.15;;
73776;SDS011;62088;50.240;2.696;2023-02-10T15:19:11;10.98;;;5.75;;
73776;SDS011;62088;50.240;2.696;2023-02-10T15:21:43;9.73;;;5.20;;
73776;SDS011;62088;50.240;2.696;2023-02-10T15:24:24;13.98;;;5.03;;
73776;SDS011;62088;50.240;2.696;2023-02-10T15:26:54;9.77;;;5.30;;
73776;SDS011;62088;50.240;2.696;2023-02-10T15:29:22;10.20;;;5.60;;
73776;SDS011;62088;50.240;2.696;2023-02-10T15:31:56;11.35;;;5.25;;
73776;SDS011;62088;50.240;2.696;2023-02-10T15:34:26;10.73;;;5.30;;
73776;SDS011;62088;50.240;2.696;2023-02-10T15:37:04;9.90;;;5.05;;
73776;SDS011;62088;50.240;2.696;2023-02-10T15:39:52;9.93;;;4.97;;
73776;SDS011;62088;50.240;2.696;2023-02-10T15:42:22;8.88;;;4.47;;
73776;SDS011;62088;50.240;2.696;2023-02-10T15:45:00;10.27;;;4.72;;
73776;SDS011;62088;50.240;2.696;2023-02-10T15:47:44;9.90;;;5.07;;
73776;SDS011;62088;50.240;2.696;2023-02-10T15:50:14;12.02;;;5.53;;
73776;SDS011;62088;50.240;2.696;2023-02-10T15:52:42;9.85;;;4.93;;
73776;SDS011;62088;50.240;2.696;2023-02-10T15:55:19;9.55;;;4.93;;
73776;SDS011;62088;50.240;2.696;2023-02-10T15:57:47;9.38;;;4.80;;
73776;SDS011;62088;50.240;2.696;2023-02-10T16:00:16;10.05;;;4.97;;
73776;SDS011;62088;50.240;2.696;2023-02-10T16:02:43;10.32;;;4.97;;
73776;SDS011;62088;50.240;2.696;2023-02-10T16:05:11;8.95;;;4.53;;
73776;SDS011;62088;50.240;2.696;2023-02-10T16:07:38;7.55;;;4.65;;
73776;SDS011;62088;50.240;2.696;2023-02-10T16:10:05;9.55;;;4.97;;
73776;SDS011;62088;50.240;2.696;2023-02-10T16:12:32;9.32;;;4.82;;
73776;SDS011;62088;50.240;2.696;2023-02-10T16:14:59;7.82;;;4.63;;
73776;SDS011;62088;50.240;2.696;2023-02-10T16:17:28;6.50;;;4.25;;
73776;SDS011;62088;50.240;2.696;2023-02-10T16:20:02;9.10;;;4.75;;
73776;SDS011;62088;50.240;2.696;2023-02-10T16:22:30;7.80;;;4.15;;
73776;SDS011;62088;50.240;2.696;2023-02-10T16:24:57;9.82;;;4.95;;
73776;SDS011;62088;50.240;2.696;2023-02-10T16:27:24;6.57;;;4.07;;
73776;SDS011;62088;50.240;2.696;2023-02-10T16:29:51;7.72;;;4.30;;
73776;SDS011;62088;50.240;2.696;2023-02-10T16:32:18;6.70;;;4.68;;
73776;SDS011;62088;50.240;2.696;2023-02-10T16:34:45;8.23;;;4.72;;
73776;SDS011;62088;50.240;2.696;2023-02-10T16:37:16;10.45;;;4.53;;
73776;SDS011;62088;50.240;2.696;2023-02-10T16:39:46;11.57;;;4.72;;
73776;SDS011;62088;50.240;2.696;2023-02-10T16:42:14;6.95;;;4.38;;
73776;SDS011;62088;50.240;2.696;2023-02-10T16:44:41;6.90;;;3.67;;
73776;SDS011;62088;50.240;2.696;2023-02-10T16:47:15;8.13;;;4.45;;
73776;SDS011;62088;50.240;2.696;2023-02-10T16:49:45;9.80;;;4.63;;
73776;SDS011;62088;50.240;2.696;2023-02-10T16:52:13;8.45;;;3.97;;
73776;SDS011;62088;50.240;2.696;2023-02-10T16:54:41;8.65;;;4.20;;
73776;SDS011;62088;50.240;2.696;2023-02-10T16:57:09;6.78;;;3.80;;
73776;SDS011;62088;50.240;2.696;2023-02-10T16:59:37;8.43;;;4.68;;
73776;SDS011;62088;50.240;2.696;2023-02-10T17:02:03;8.10;;;3.75;;
73776;SDS011;62088;50.240;2.696;2023-02-10T17:04:31;10.35;;;4.43;;
73776;SDS011;62088;50.240;2.696;2023-02-10T17:06:58;11.00;;;3.97;;
73776;SDS011;62088;50.240;2.696;2023-02-10T17:09:25;7.13;;;3.55;;